createdAt,value
2022-10-31T00:00:09.045Z,3.77
2022-10-31T00:03:16.812Z,4.30
2022-10-31T00:06:21.906Z,3.17
2022-10-31T00:09:26.632Z,3.00
2022-10-31T00:12:31.521Z,4.27
2022-10-31T00:15:38.058Z,3.87
2022-10-31T00:18:42.887Z,4.67
2022-10-31T00:21:47.597Z,5.60
2022-10-31T00:24:52.512Z,3.50
2022-10-31T00:27:57.765Z,4.47
2022-10-31T00:31:04.855Z,3.70
2022-10-31T00:34:11.257Z,3.47
2022-10-31T00:37:16.225Z,7.20
2022-10-31T00:40:22.755Z,4.47
2022-10-31T00:43:27.371Z,5.80
2022-10-31T00:46:33.462Z,6.33
2022-10-31T00:49:38.196Z,5.87
2022-10-31T00:52:43.001Z,5.20
2022-10-31T00:55:47.634Z,3.43
2022-10-31T00:58:52.352Z,4.13
2022-10-31T01:02:00.020Z,3.73
2022-10-31T01:05:05.544Z,3.87
2022-10-31T01:08:16.910Z,3.37
2022-10-31T01:11:24.249Z,3.23
2022-10-31T01:14:29.047Z,3.10
2022-10-31T01:17:37.232Z,5.23
2022-10-31T01:20:42.322Z,4.20
2022-10-31T01:23:47.216Z,3.20
2022-10-31T01:26:52.052Z,2.93
2022-10-31T01:29:57.036Z,3.17
2022-10-31T01:33:03.194Z,3.97
2022-10-31T01:36:20.542Z,3.03
2022-10-31T01:39:28.935Z,3.07
2022-10-31T01:42:33.673Z,3.63
2022-10-31T01:45:38.800Z,4.35
2022-10-31T01:48:44.869Z,3.00
2022-10-31T01:51:52.731Z,3.17
2022-10-31T01:55:02.050Z,3.22
2022-10-31T01:58:13.781Z,3.03
2022-10-31T02:01:19.447Z,5.03
2022-10-31T02:04:27.960Z,3.00
2022-10-31T02:07:39.130Z,3.10
2022-10-31T02:10:45.428Z,6.20
2022-10-31T02:13:50.577Z,4.60
2022-10-31T02:16:56.641Z,6.27
2022-10-31T02:20:14.575Z,3.13
2022-10-31T02:24:03.162Z,4.20
2022-10-31T02:27:34.306Z,5.17
2022-10-31T02:31:09.681Z,2.90
2022-10-31T02:34:21.770Z,4.70
2022-10-31T02:37:32.135Z,3.37
2022-10-31T02:40:40.598Z,3.10
2022-10-31T02:44:15.129Z,3.57
2022-10-31T02:47:23.733Z,9.03
2022-10-31T02:50:33.259Z,5.20
2022-10-31T02:53:40.622Z,4.50
2022-10-31T02:56:47.685Z,8.27
2022-10-31T02:59:58.346Z,4.07
2022-10-31T03:03:06.049Z,5.10
2022-10-31T03:06:16.833Z,5.43
2022-10-31T03:09:27.208Z,7.37
2022-10-31T03:12:43.248Z,4.57
2022-10-31T03:15:56.027Z,5.13
2022-10-31T03:19:03.357Z,8.90
2022-10-31T03:22:15.192Z,7.72
2022-10-31T03:25:21.353Z,3.40
2022-10-31T03:28:32.051Z,5.53
2022-10-31T03:31:40.181Z,6.03
2022-10-31T03:34:47.141Z,6.50
2022-10-31T03:37:56.749Z,8.47
2022-10-31T03:41:03.338Z,5.15
2022-10-31T03:44:14.428Z,8.57
2022-10-31T03:47:19.847Z,6.47
2022-10-31T03:50:31.323Z,2.97
2022-10-31T03:53:42.721Z,6.47
2022-10-31T03:56:54.445Z,5.50
2022-10-31T04:00:06.983Z,6.25
2022-10-31T04:03:27.368Z,10.07
2022-10-31T04:06:34.843Z,3.78
2022-10-31T04:09:45.075Z,14.32
2022-10-31T04:12:54.721Z,6.70
2022-10-31T04:16:03.133Z,9.95
2022-10-31T04:19:08.264Z,11.07
2022-10-31T04:22:14.000Z,9.27
2022-10-31T04:25:20.086Z,13.30
2022-10-31T04:28:25.165Z,13.75
2022-10-31T04:31:30.492Z,10.18
2022-10-31T04:34:35.428Z,10.32
2022-10-31T04:37:40.448Z,13.15
2022-10-31T04:40:47.594Z,9.82
2022-10-31T04:44:27.392Z,12.45
2022-10-31T04:47:38.029Z,16.95
2022-10-31T04:50:44.292Z,13.23
2022-10-31T04:53:49.320Z,8.95
2022-10-31T04:57:15.577Z,16.65
2022-10-31T05:00:23.617Z,10.10
2022-10-31T05:03:29.124Z,14.50
2022-10-31T05:06:34.008Z,8.82
2022-10-31T05:09:38.909Z,16.00
2022-10-31T05:12:50.032Z,14.80
2022-10-31T05:16:07.205Z,10.98
2022-10-31T05:19:30.895Z,22.50
2022-10-31T05:23:00.279Z,13.32
2022-10-31T05:26:06.350Z,13.93
2022-10-31T05:29:13.943Z,14.70
2022-10-31T05:32:18.845Z,14.07
2022-10-31T05:35:58.518Z,18.30
2022-10-31T05:39:12.748Z,11.18
2022-10-31T05:42:24.892Z,17.77
2022-10-31T05:45:31.738Z,16.45
2022-10-31T05:48:40.553Z,21.83
2022-10-31T05:52:03.741Z,16.20
2022-10-31T05:55:16.992Z,13.20
2022-10-31T05:58:36.479Z,7.45
2022-10-31T06:01:45.357Z,16.88
2022-10-31T06:05:25.831Z,9.27
2022-10-31T06:08:31.216Z,8.23
2022-10-31T06:11:40.016Z,21.15
2022-10-31T06:14:44.635Z,5.82
2022-10-31T06:18:01.449Z,5.57
2022-10-31T06:21:08.615Z,22.65
2022-10-31T06:24:15.901Z,9.82
2022-10-31T06:27:40.814Z,7.90
2022-10-31T06:30:51.594Z,5.80
2022-10-31T06:33:58.832Z,11.02
2022-10-31T06:37:03.872Z,11.23
2022-10-31T06:40:10.921Z,8.38
2022-10-31T06:43:35.826Z,10.15
2022-10-31T06:46:57.143Z,15.95
2022-10-31T06:50:18.574Z,7.53
2022-10-31T06:53:25.354Z,12.75
2022-10-31T06:56:31.389Z,7.13
2022-10-31T06:59:37.388Z,8.60
2022-10-31T07:02:57.469Z,14.02
2022-10-31T07:06:03.660Z,14.25
2022-10-31T07:09:10.488Z,9.85
2022-10-31T07:12:15.294Z,12.07
2022-10-31T07:15:27.314Z,12.13
2022-10-31T07:18:32.809Z,10.55
2022-10-31T07:21:39.158Z,11.88
2022-10-31T07:24:45.047Z,13.57
2022-10-31T07:28:22.092Z,17.55
2022-10-31T07:31:29.955Z,13.32
2022-10-31T07:34:44.909Z,12.90
2022-10-31T07:37:57.061Z,12.52
2022-10-31T07:41:02.024Z,11.43
2022-10-31T07:44:09.953Z,12.90
2022-10-31T07:47:44.828Z,14.50
2022-10-31T07:51:08.371Z,16.63
2022-10-31T07:54:33.242Z,17.67
2022-10-31T07:57:38.932Z,14.55
2022-10-31T08:00:46.909Z,11.13
2022-10-31T08:03:55.556Z,14.00
2022-10-31T08:07:23.272Z,12.95
2022-10-31T08:10:39.862Z,18.80
2022-10-31T08:13:46.304Z,17.48
2022-10-31T08:16:54.136Z,14.90
2022-10-31T08:19:59.147Z,18.75
2022-10-31T08:23:14.655Z,19.73
2022-10-31T08:26:22.504Z,17.17
2022-10-31T08:29:29.172Z,19.90
2022-10-31T08:32:34.817Z,18.63
2022-10-31T08:36:02.250Z,23.25
2022-10-31T08:39:39.713Z,23.42
2022-10-31T08:42:47.324Z,21.50
2022-10-31T08:45:52.344Z,20.08
2022-10-31T08:49:05.232Z,20.13
2022-10-31T08:52:14.476Z,17.17
2022-10-31T08:55:20.999Z,24.85
2022-10-31T08:58:45.712Z,19.17
2022-10-31T09:01:51.033Z,19.88
2022-10-31T09:04:56.710Z,18.15
2022-10-31T09:08:04.688Z,22.38
2022-10-31T09:11:10.673Z,15.85
2022-10-31T09:14:35.201Z,15.50
2022-10-31T09:17:59.194Z,17.23
2022-10-31T09:21:10.864Z,13.13
2022-10-31T09:24:15.761Z,12.88
2022-10-31T09:27:20.992Z,9.95
2022-10-31T09:30:29.363Z,11.60
2022-10-31T09:33:34.058Z,14.18
2022-10-31T09:36:58.766Z,17.00
2022-10-31T09:40:03.494Z,13.55
2022-10-31T09:43:23.637Z,13.55
2022-10-31T09:46:37.215Z,13.48
2022-10-31T09:50:04.577Z,13.05
2022-10-31T09:53:18.334Z,12.35
2022-10-31T09:56:25.155Z,15.55
2022-10-31T09:59:38.436Z,11.95
2022-10-31T10:02:49.060Z,16.13
2022-10-31T10:05:59.796Z,14.40
2022-10-31T10:09:18.806Z,10.48
2022-10-31T10:13:29.736Z,11.82
2022-10-31T10:16:46.810Z,8.25
2022-10-31T10:20:22.830Z,15.60
2022-10-31T10:23:40.637Z,10.55
2022-10-31T10:26:52.964Z,11.35
2022-10-31T10:30:05.020Z,12.15
2022-10-31T10:33:14.773Z,12.40
2022-10-31T10:36:28.153Z,16.85
2022-10-31T10:39:39.234Z,13.38
2022-10-31T10:43:03.365Z,12.77
2022-10-31T10:46:43.382Z,15.10
2022-10-31T10:49:52.924Z,11.50
2022-10-31T10:53:09.152Z,11.15
2022-10-31T10:56:19.239Z,10.15
2022-10-31T10:59:24.850Z,11.52
2022-10-31T11:02:34.099Z,14.55
2022-10-31T11:05:43.612Z,9.63
2022-10-31T11:08:50.842Z,12.15
2022-10-31T11:11:56.545Z,9.95
2022-10-31T11:15:08.412Z,12.52
2022-10-31T11:21:35.785Z,11.40
2022-10-31T11:24:43.601Z,13.68
2022-10-31T11:27:48.994Z,13.05
2022-10-31T11:30:56.997Z,17.55
2022-10-31T11:34:03.892Z,10.52
2022-10-31T11:37:17.193Z,9.60
2022-10-31T11:40:25.520Z,10.48
2022-10-31T11:43:30.806Z,12.93
2022-10-31T11:46:38.074Z,12.45
2022-10-31T11:49:44.976Z,10.40
2022-10-31T11:52:49.946Z,11.68
2022-10-31T11:56:11.528Z,12.30
2022-10-31T11:59:30.162Z,14.52
2022-10-31T12:02:34.867Z,16.90
2022-10-31T12:05:40.035Z,11.45
2022-10-31T12:08:44.893Z,14.82
2022-10-31T12:12:07.815Z,9.13
2022-10-31T12:15:39.233Z,13.82
2022-10-31T12:18:59.611Z,15.63
2022-10-31T12:22:15.653Z,13.70
2022-10-31T12:25:38.075Z,12.13
2022-10-31T12:29:09.943Z,12.35
2022-10-31T12:32:30.402Z,10.18
2022-10-31T12:35:47.399Z,10.65
2022-10-31T12:39:26.805Z,11.90
2022-10-31T12:42:47.532Z,16.30
2022-10-31T12:45:58.541Z,14.50
2022-10-31T12:49:30.421Z,9.48
2022-10-31T12:52:48.829Z,14.30
2022-10-31T12:56:05.902Z,9.73
2022-10-31T12:59:23.896Z,14.38
2022-10-31T13:02:33.412Z,12.30
2022-10-31T13:05:41.424Z,8.00
2022-10-31T13:08:50.473Z,10.55
2022-10-31T13:12:00.995Z,10.90
2022-10-31T13:15:15.246Z,12.35
2022-10-31T13:18:31.795Z,9.63
2022-10-31T13:21:40.556Z,6.57
2022-10-31T13:25:00.019Z,10.95
2022-10-31T13:28:26.381Z,12.65
2022-10-31T13:31:31.256Z,7.47
2022-10-31T13:34:40.989Z,10.65
2022-10-31T13:37:54.718Z,10.73
2022-10-31T13:41:03.100Z,8.43
2022-10-31T13:44:15.684Z,11.32
2022-10-31T13:47:27.268Z,10.43
2022-10-31T13:50:34.751Z,9.10
2022-10-31T13:53:44.201Z,10.15
2022-10-31T13:56:51.472Z,12.55
2022-10-31T13:59:59.093Z,7.40
2022-10-31T14:03:03.999Z,12.65
2022-10-31T14:06:11.590Z,6.65
2022-10-31T14:09:35.255Z,9.93
2022-10-31T14:12:42.715Z,8.40
2022-10-31T14:15:57.220Z,9.57
2022-10-31T14:19:04.045Z,6.05
2022-10-31T14:22:23.091Z,8.68
2022-10-31T14:25:31.370Z,6.78
2022-10-31T14:28:38.021Z,9.63
2022-10-31T14:31:45.960Z,11.80
2022-10-31T14:34:57.850Z,9.65
2022-10-31T14:38:27.495Z,10.05
2022-10-31T14:41:47.553Z,6.70
2022-10-31T14:45:11.363Z,9.52
2022-10-31T14:49:00.448Z,10.10
2022-10-31T14:52:09.740Z,9.40
2022-10-31T14:55:16.674Z,7.43
2022-10-31T14:58:24.815Z,10.02
2022-10-31T15:01:32.206Z,6.80
2022-10-31T15:04:37.898Z,5.97
2022-10-31T15:07:53.358Z,8.02
2022-10-31T15:10:59.362Z,5.43
2022-10-31T15:14:04.022Z,7.60
2022-10-31T15:17:11.445Z,8.25
2022-10-31T15:20:21.693Z,6.95
2022-10-31T15:23:28.124Z,6.00
2022-10-31T15:26:37.633Z,10.35
2022-10-31T15:29:51.643Z,8.20
2022-10-31T15:32:59.221Z,10.45
2022-10-31T15:36:05.309Z,9.88
2022-10-31T15:39:13.352Z,6.07
2022-10-31T15:42:25.930Z,6.28
2022-10-31T15:45:32.250Z,7.70
2022-10-31T15:48:37.953Z,7.72
2022-10-31T15:51:42.777Z,9.52
2022-10-31T15:54:51.094Z,5.97
2022-10-31T15:58:00.131Z,5.40
2022-10-31T16:01:08.161Z,5.95
2022-10-31T16:04:24.842Z,5.18
2022-10-31T16:07:30.955Z,5.32
2022-10-31T16:10:37.200Z,6.40
2022-10-31T16:13:57.083Z,5.95
2022-10-31T16:17:01.925Z,6.47
2022-10-31T16:20:09.123Z,8.80
2022-10-31T16:23:18.804Z,12.75
2022-10-31T16:26:23.457Z,5.88
2022-10-31T16:29:34.774Z,10.00
2022-10-31T16:32:55.904Z,8.27
2022-10-31T16:36:30.133Z,5.88
2022-10-31T16:39:28.176Z,7.63
2022-10-31T16:42:32.925Z,10.77
2022-10-31T16:45:40.093Z,12.63
2022-10-31T16:48:45.113Z,9.13
2022-10-31T16:51:49.935Z,8.18
2022-10-31T16:54:55.204Z,11.07
2022-10-31T16:58:00.459Z,9.68
2022-10-31T17:01:08.549Z,6.70
2022-10-31T17:04:16.396Z,8.63
2022-10-31T17:07:21.173Z,7.93
2022-10-31T17:10:26.655Z,10.73
2022-10-31T17:13:33.116Z,21.67
2022-10-31T17:16:39.736Z,18.38
2022-10-31T17:19:44.376Z,21.13
2022-10-31T17:22:49.268Z,34.80
2022-10-31T17:25:54.092Z,34.17
2022-10-31T17:29:00.093Z,28.17
2022-10-31T17:32:06.905Z,27.02
2022-10-31T17:35:13.921Z,30.10
2022-10-31T17:38:19.474Z,19.65
2022-10-31T17:41:24.089Z,22.08
2022-10-31T17:44:29.014Z,21.48
2022-10-31T17:47:35.329Z,13.40
2022-10-31T17:50:40.660Z,16.77
2022-10-31T17:53:45.304Z,17.17
2022-10-31T17:56:50.272Z,11.55
2022-10-31T17:59:55.028Z,11.50
2022-10-31T18:03:04.386Z,15.73
2022-10-31T18:06:10.920Z,10.95
2022-10-31T18:09:16.089Z,13.32
2022-10-31T18:12:20.859Z,12.52
2022-10-31T18:15:25.901Z,5.88
2022-10-31T18:18:31.914Z,6.28
2022-10-31T18:21:36.597Z,6.03
2022-10-31T18:24:41.774Z,9.48
2022-10-31T18:27:46.863Z,6.45
2022-10-31T18:30:51.509Z,6.57
2022-10-31T18:33:58.717Z,8.38
2022-10-31T18:37:03.457Z,9.75
2022-10-31T18:40:10.649Z,8.73
2022-10-31T18:43:17.300Z,15.30
2022-10-31T18:46:22.369Z,17.27
2022-10-31T18:49:32.720Z,15.30
2022-10-31T18:52:37.857Z,21.80
2022-10-31T18:55:47.250Z,25.27
2022-10-31T18:58:53.813Z,32.15
2022-10-31T19:01:58.619Z,30.92
2022-10-31T19:05:05.618Z,36.58
2022-10-31T19:08:12.215Z,36.05
2022-10-31T19:11:17.346Z,33.88
2022-10-31T19:14:22.089Z,41.00
2022-10-31T19:17:27.021Z,37.63
2022-10-31T19:20:34.194Z,21.35
2022-10-31T19:23:39.308Z,20.73
2022-10-31T19:26:44.172Z,26.27
2022-10-31T19:29:49.202Z,21.58
2022-10-31T19:32:55.911Z,18.05
2022-10-31T19:36:02.796Z,22.70
2022-10-31T19:39:08.344Z,13.32
2022-10-31T19:42:13.378Z,18.70
2022-10-31T19:45:18.250Z,14.98
2022-10-31T19:48:22.921Z,12.20
2022-10-31T19:51:29.440Z,14.48
2022-10-31T19:54:34.463Z,16.15
2022-10-31T19:58:11.104Z,17.08
2022-10-31T20:01:09.659Z,10.32
2022-10-31T20:04:14.422Z,9.98
2022-10-31T20:07:20.665Z,14.60
2022-10-31T20:10:25.601Z,8.40
2022-10-31T20:13:31.926Z,10.48
2022-10-31T20:16:36.923Z,10.32
2022-10-31T20:19:41.796Z,9.80
2022-10-31T20:22:49.806Z,9.32
2022-10-31T20:25:54.432Z,9.50
2022-10-31T20:29:02.283Z,10.52
2022-10-31T20:32:07.772Z,11.43
2022-10-31T20:35:13.164Z,11.15
2022-10-31T20:38:19.256Z,17.67
2022-10-31T20:41:24.069Z,6.82
2022-10-31T20:44:29.062Z,7.47
2022-10-31T20:47:33.665Z,6.78
2022-10-31T20:50:40.264Z,7.78
2022-10-31T20:53:46.464Z,8.40
2022-10-31T20:56:51.206Z,6.40
2022-10-31T20:59:55.880Z,7.63
2022-10-31T21:03:00.937Z,11.15
2022-10-31T21:06:07.133Z,4.60
2022-10-31T21:09:13.669Z,7.50
2022-10-31T21:12:18.401Z,8.52
2022-10-31T21:15:23.152Z,7.68
2022-10-31T21:18:28.561Z,12.95
2022-10-31T21:21:36.241Z,5.85
2022-10-31T21:24:42.516Z,10.18
2022-10-31T21:27:47.251Z,14.30
2022-10-31T21:30:52.936Z,8.70
2022-10-31T21:33:59.084Z,8.70
2022-10-31T21:37:03.730Z,11.90
2022-10-31T21:40:11.597Z,9.77
2022-10-31T21:43:17.565Z,5.82
2022-10-31T21:46:24.084Z,5.10
2022-10-31T21:49:28.945Z,7.00
2022-10-31T21:52:33.620Z,5.47
2022-10-31T21:55:40.050Z,5.32
2022-10-31T21:58:45.007Z,10.18
2022-10-31T22:01:50.005Z,7.30
2022-10-31T22:04:54.724Z,4.22
2022-10-31T22:07:59.783Z,4.43
2022-10-31T22:11:08.503Z,4.22
2022-10-31T22:14:14.496Z,4.80
2022-10-31T22:17:19.967Z,6.22
2022-10-31T22:20:26.195Z,6.85
2022-10-31T22:23:31.342Z,8.02
2022-10-31T22:26:38.123Z,8.35
2022-10-31T22:29:42.783Z,6.28
2022-10-31T22:32:47.525Z,6.75
2022-10-31T22:35:52.329Z,5.28
2022-10-31T22:38:57.127Z,8.10
2022-10-31T22:42:03.111Z,4.82
2022-10-31T22:45:10.339Z,3.78
2022-10-31T22:48:15.924Z,6.55
2022-10-31T22:51:23.307Z,7.00
2022-10-31T22:54:28.283Z,4.18
2022-10-31T22:57:35.516Z,12.27
2022-10-31T23:00:40.661Z,6.15
2022-10-31T23:03:45.795Z,6.03
2022-10-31T23:06:50.505Z,6.55
2022-10-31T23:09:56.589Z,13.30
2022-10-31T23:13:20.401Z,10.18
2022-10-31T23:16:25.095Z,4.68
2022-10-31T23:19:31.689Z,10.02
2022-10-31T23:22:36.342Z,6.05
2022-10-31T23:25:58.539Z,8.43
2022-10-31T23:29:04.496Z,3.95
2022-10-31T23:32:18.578Z,3.80
2022-10-31T23:35:23.372Z,5.05
2022-10-31T23:38:28.320Z,9.82
2022-10-31T23:41:33.685Z,6.53
2022-10-31T23:44:39.666Z,4.30
2022-10-31T23:47:44.482Z,4.50
2022-10-31T23:50:49.726Z,8.05
2022-10-31T23:53:54.333Z,5.40
2022-10-31T23:56:59.200Z,6.00
